createdAt,value
2022-08-07T00:00:26.546Z,1.00
2022-08-07T00:02:56.136Z,1.00
2022-08-07T00:05:24.561Z,1.00
2022-08-07T00:07:59.678Z,1.00
2022-08-07T00:10:30.649Z,1.00
2022-08-07T00:13:09.924Z,1.00
2022-08-07T00:15:52.875Z,1.00
2022-08-07T00:18:24.572Z,1.00
2022-08-07T00:20:54.427Z,1.00
2022-08-07T00:23:22.509Z,1.00
2022-08-07T00:25:52.140Z,1.00
2022-08-07T00:28:33.747Z,1.00
2022-08-07T00:31:06.036Z,1.00
2022-08-07T00:33:35.461Z,1.00
2022-08-07T00:36:05.033Z,1.00
2022-08-07T00:38:34.126Z,1.00
2022-08-07T00:41:02.562Z,1.00
2022-08-07T00:44:00.279Z,1.00
2022-08-07T00:46:20.491Z,1.00
2022-08-07T00:48:51.829Z,1.00
2022-08-07T00:51:21.006Z,1.00
2022-08-07T00:53:55.208Z,1.00
2022-08-07T00:56:30.178Z,1.00
2022-08-07T00:59:00.075Z,1.00
2022-08-07T01:01:44.036Z,1.00
2022-08-07T01:04:24.712Z,1.00
2022-08-07T01:06:53.823Z,1.00
2022-08-07T01:10:04.586Z,1.00
2022-08-07T01:12:29.988Z,1.10
2022-08-07T01:15:04.475Z,1.50
2022-08-07T01:17:33.756Z,1.00
2022-08-07T01:20:07.936Z,1.70
2022-08-07T01:22:47.024Z,3.60
2022-08-07T01:25:54.870Z,2.30
2022-08-07T01:28:16.222Z,3.40
2022-08-07T01:30:46.239Z,5.30
2022-08-07T01:33:16.538Z,7.00
2022-08-07T01:35:53.249Z,8.20
2022-08-07T01:38:24.995Z,10.70
2022-08-07T01:40:58.354Z,10.20
2022-08-07T01:43:38.009Z,11.40
2022-08-07T01:46:12.261Z,11.10
2022-08-07T01:48:46.571Z,14.60
2022-08-07T01:52:01.032Z,16.20
2022-08-07T01:54:32.958Z,16.50
2022-08-07T01:57:08.270Z,19.00
2022-08-07T01:59:44.090Z,20.90
2022-08-07T02:02:32.473Z,20.80
2022-08-07T02:05:05.510Z,22.40
2022-08-07T02:07:50.146Z,25.00
2022-08-07T02:10:27.750Z,26.30
2022-08-07T02:12:59.717Z,27.70
2022-08-07T02:15:36.531Z,28.50
2022-08-07T02:18:06.602Z,28.60
2022-08-07T02:20:34.995Z,30.70
2022-08-07T02:23:07.530Z,32.30
2022-08-07T02:26:31.624Z,32.10
2022-08-07T02:28:32.281Z,33.00
2022-08-07T02:31:10.486Z,33.20
2022-08-07T02:34:03.612Z,33.70
2022-08-07T02:36:37.752Z,35.70
2022-08-07T02:39:17.490Z,38.30
2022-08-07T02:42:10.292Z,39.80
2022-08-07T02:44:49.723Z,41.20
2022-08-07T02:47:23.966Z,41.20
2022-08-07T02:50:00.380Z,42.90
2022-08-07T02:52:37.199Z,41.80
2022-08-07T02:55:27.554Z,38.60
2022-08-07T02:58:05.311Z,37.80
2022-08-07T03:00:36.030Z,37.10
2022-08-07T03:03:13.518Z,36.30
2022-08-07T03:05:47.698Z,37.20
2022-08-07T03:08:19.014Z,36.60
2022-08-07T03:10:57.069Z,36.90
2022-08-07T03:13:39.048Z,39.00
2022-08-07T03:16:23.031Z,39.60
2022-08-07T03:18:57.215Z,41.10
2022-08-07T03:21:26.147Z,41.20
2022-08-07T03:24:21.219Z,43.70
2022-08-07T03:26:58.433Z,44.20
2022-08-07T03:29:33.957Z,44.90
2022-08-07T03:32:13.394Z,42.80
2022-08-07T03:34:47.186Z,43.10
2022-08-07T03:37:37.414Z,44.90
2022-08-07T03:40:16.862Z,47.50
2022-08-07T03:42:46.150Z,48.30
2022-08-07T03:45:30.085Z,49.40
2022-08-07T03:48:03.906Z,49.40
2022-08-07T03:50:38.907Z,52.00
2022-08-07T03:53:12.027Z,53.30
2022-08-07T03:55:57.885Z,53.30
2022-08-07T03:59:08.365Z,54.10
2022-08-07T04:01:24.991Z,55.70
2022-08-07T04:03:55.171Z,55.50
2022-08-07T04:06:37.383Z,58.20
2022-08-07T04:09:16.000Z,56.70
2022-08-07T04:12:21.081Z,62.20
2022-08-07T04:14:45.983Z,70.90
2022-08-07T04:17:20.780Z,76.00
2022-08-07T04:19:54.105Z,81.00
2022-08-07T04:22:27.583Z,85.70
2022-08-07T04:25:01.679Z,90.60
2022-08-07T04:27:35.987Z,94.40
2022-08-07T04:30:21.019Z,95.30
2022-08-07T04:33:18.633Z,93.90
2022-08-07T04:35:50.170Z,92.40
2022-08-07T04:38:22.247Z,94.00
2022-08-07T04:40:51.875Z,95.60
2022-08-07T04:44:10.487Z,95.50
2022-08-07T04:46:34.285Z,97.40
2022-08-07T04:49:17.681Z,99.90
2022-08-07T04:52:04.970Z,99.90
2022-08-07T04:54:37.615Z,99.90
2022-08-07T04:58:24.304Z,99.90
2022-08-07T05:00:14.347Z,99.90
2022-08-07T05:02:56.998Z,99.90
2022-08-07T05:05:53.464Z,99.90
2022-08-07T05:08:45.854Z,99.90
2022-08-07T05:11:26.180Z,99.90
2022-08-07T05:14:53.188Z,99.90
2022-08-07T05:16:53.195Z,99.90
2022-08-07T05:19:25.669Z,99.90
2022-08-07T05:22:05.573Z,99.90
2022-08-07T05:24:40.933Z,99.90
2022-08-07T05:27:14.578Z,98.80
2022-08-07T05:30:02.775Z,97.20
2022-08-07T05:32:32.145Z,95.40
2022-08-07T05:35:02.310Z,94.50
2022-08-07T05:37:40.767Z,92.70
2022-08-07T05:40:18.087Z,91.20
2022-08-07T05:42:55.715Z,89.90
2022-08-07T05:45:46.357Z,81.00
2022-08-07T05:48:15.247Z,71.90
2022-08-07T05:50:47.285Z,60.90
2022-08-07T05:54:13.024Z,54.10
2022-08-07T05:56:12.482Z,43.20
2022-08-07T05:58:49.286Z,38.70
2022-08-07T06:01:24.630Z,32.50
2022-08-07T06:04:00.925Z,26.40
2022-08-07T06:06:36.554Z,25.30
2022-08-07T06:09:10.724Z,23.50
2022-08-07T06:11:44.409Z,23.20
2022-08-07T06:14:20.708Z,20.60
2022-08-07T06:16:56.341Z,18.10
2022-08-07T06:19:51.766Z,16.50
2022-08-07T06:22:27.133Z,17.40
2022-08-07T06:25:15.400Z,16.40
2022-08-07T06:28:01.338Z,14.00
2022-08-07T06:30:37.334Z,13.90
2022-08-07T06:33:16.564Z,13.50
2022-08-07T06:36:06.889Z,13.90
2022-08-07T06:38:38.318Z,14.00
2022-08-07T06:41:19.341Z,12.00
2022-08-07T06:44:12.387Z,8.00
2022-08-07T06:46:41.394Z,5.10
2022-08-07T06:49:12.696Z,1.50
2022-08-07T06:51:49.396Z,1.00
2022-08-07T06:55:32.148Z,1.00
2022-08-07T06:57:13.487Z,1.00
2022-08-07T07:00:11.647Z,1.00
2022-08-07T07:02:54.513Z,1.00
2022-08-07T07:06:05.708Z,1.00
2022-08-07T07:08:18.926Z,1.00
2022-08-07T07:10:57.164Z,1.00
2022-08-07T07:13:41.647Z,1.00
2022-08-07T07:16:27.595Z,1.00
2022-08-07T07:19:56.403Z,1.00
2022-08-07T07:22:05.152Z,1.00
2022-08-07T07:24:56.632Z,1.00
2022-08-07T07:27:35.838Z,1.00
2022-08-07T07:30:38.104Z,1.00
2022-08-07T07:33:08.744Z,1.00
2022-08-07T07:35:54.402Z,1.00
2022-08-07T07:38:33.513Z,1.00
2022-08-07T07:41:05.553Z,1.00
2022-08-07T07:44:14.766Z,1.00
2022-08-07T07:46:39.873Z,1.00
2022-08-07T07:50:33.277Z,1.00
2022-08-07T07:52:12.767Z,1.00
2022-08-07T07:54:44.178Z,1.00
2022-08-07T07:57:43.640Z,1.00
2022-08-07T08:00:12.211Z,1.00
2022-08-07T08:03:05.372Z,1.00
2022-08-07T08:05:43.014Z,1.00
2022-08-07T08:08:32.390Z,1.00
2022-08-07T08:11:08.169Z,1.00
2022-08-07T08:13:54.312Z,1.00
2022-08-07T08:16:29.848Z,1.00
2022-08-07T08:19:09.664Z,1.00
2022-08-07T08:22:09.833Z,1.00
2022-08-07T08:25:18.872Z,1.00
2022-08-07T08:27:56.763Z,1.00
2022-08-07T08:30:27.610Z,1.00
2022-08-07T08:32:59.475Z,1.00
2022-08-07T08:35:39.447Z,1.00
2022-08-07T08:38:18.106Z,1.00
2022-08-07T08:40:55.502Z,1.00
2022-08-07T08:43:42.057Z,1.00
2022-08-07T08:46:17.899Z,1.00
2022-08-07T08:48:58.206Z,1.00
2022-08-07T08:51:49.667Z,1.00
2022-08-07T08:54:25.935Z,1.00
2022-08-07T08:56:56.106Z,1.00
2022-08-07T08:59:30.403Z,1.00
2022-08-07T09:02:36.697Z,1.00
2022-08-07T09:05:24.977Z,1.00
2022-08-07T09:08:12.160Z,1.00
2022-08-07T09:10:53.391Z,1.00
2022-08-07T09:13:36.907Z,1.00
2022-08-07T09:16:25.762Z,1.00
2022-08-07T09:19:52.283Z,1.00
2022-08-07T09:24:28.352Z,1.00
2022-08-07T09:25:17.467Z,1.00
2022-08-07T09:28:00.038Z,1.00
2022-08-07T09:30:38.807Z,1.00
2022-08-07T09:33:40.682Z,1.00
2022-08-07T09:36:15.527Z,1.00
2022-08-07T09:38:53.793Z,1.00
2022-08-07T09:41:36.181Z,1.00
2022-08-07T09:44:32.725Z,1.00
2022-08-07T09:47:52.062Z,1.00
2022-08-07T09:50:20.071Z,1.00
2022-08-07T09:52:52.307Z,1.00
2022-08-07T09:55:29.355Z,1.00
2022-08-07T09:58:35.841Z,1.00
2022-08-07T10:01:14.995Z,1.00
2022-08-07T10:04:32.467Z,1.00
2022-08-07T10:07:26.212Z,1.00
2022-08-07T10:10:24.122Z,1.00
2022-08-07T10:14:01.315Z,1.00
2022-08-07T10:16:48.384Z,1.00
2022-08-07T10:19:41.932Z,1.00
2022-08-07T10:22:33.760Z,1.00
2022-08-07T10:25:42.422Z,1.00
2022-08-07T10:28:26.139Z,1.00
2022-08-07T10:31:10.961Z,1.00
2022-08-07T10:34:06.461Z,1.00
2022-08-07T10:36:58.334Z,1.00
2022-08-07T10:40:03.078Z,1.00
2022-08-07T10:42:39.440Z,1.00
2022-08-07T10:45:19.430Z,1.00
2022-08-07T10:48:17.434Z,1.00
2022-08-07T10:50:53.171Z,1.00
2022-08-07T10:53:28.561Z,1.00
2022-08-07T10:56:35.642Z,1.00
2022-08-07T10:59:21.412Z,1.00
2022-08-07T11:02:05.313Z,1.00
2022-08-07T11:04:57.448Z,1.00
2022-08-07T11:07:58.800Z,1.00
2022-08-07T11:10:33.599Z,1.00
2022-08-07T11:13:16.826Z,1.00
2022-08-07T11:16:07.131Z,1.00
2022-08-07T11:18:42.324Z,1.00
2022-08-07T11:21:18.019Z,1.00
2022-08-07T11:23:56.651Z,1.00
2022-08-07T11:26:32.535Z,1.00
2022-08-07T11:29:13.105Z,1.00
2022-08-07T11:32:05.695Z,1.00
2022-08-07T11:34:42.523Z,1.00
2022-08-07T11:37:24.373Z,1.00
2022-08-07T11:40:20.077Z,1.00
2022-08-07T11:42:55.483Z,1.00
2022-08-07T11:45:35.935Z,1.00
2022-08-07T11:48:29.836Z,1.00
2022-08-07T11:51:45.120Z,1.00
2022-08-07T11:54:34.360Z,1.00
2022-08-07T11:57:14.176Z,1.00
2022-08-07T12:00:17.910Z,1.00
2022-08-07T12:03:44.208Z,1.00
2022-08-07T12:06:37.791Z,1.00
2022-08-07T12:09:16.787Z,1.00
2022-08-07T12:12:10.782Z,1.00
2022-08-07T12:14:56.426Z,1.00
2022-08-07T12:17:38.351Z,1.00
2022-08-07T12:20:29.746Z,1.00
2022-08-07T12:23:37.422Z,1.00
2022-08-07T12:26:29.213Z,1.00
2022-08-07T12:29:07.213Z,1.00
2022-08-07T12:32:01.940Z,1.00
2022-08-07T12:34:33.864Z,1.00
2022-08-07T12:37:08.781Z,1.00
2022-08-07T12:39:50.980Z,1.00
2022-08-07T12:42:27.989Z,1.00
2022-08-07T12:44:59.719Z,1.00
2022-08-07T12:47:39.708Z,1.00
2022-08-07T12:50:39.649Z,1.00
2022-08-07T12:53:17.745Z,1.00
2022-08-07T12:56:02.777Z,1.00
2022-08-07T12:58:37.481Z,1.00
2022-08-07T13:01:18.149Z,1.00
2022-08-07T13:04:02.316Z,1.00
2022-08-07T13:07:00.451Z,1.00
2022-08-07T13:10:37.595Z,1.00
2022-08-07T13:12:51.573Z,1.00
2022-08-07T13:15:31.881Z,1.00
2022-08-07T13:18:26.452Z,1.00
2022-08-07T13:21:07.106Z,1.00
2022-08-07T13:24:00.821Z,1.00
2022-08-07T13:26:40.090Z,1.00
2022-08-07T13:29:15.319Z,1.00
2022-08-07T13:31:57.536Z,1.00
2022-08-07T13:34:38.578Z,1.00
2022-08-07T13:37:30.569Z,1.00
2022-08-07T13:40:36.794Z,1.00
2022-08-07T13:43:00.743Z,1.00
2022-08-07T13:46:11.578Z,1.00
2022-08-07T13:48:33.741Z,1.00
2022-08-07T13:51:27.413Z,1.00
2022-08-07T13:54:01.628Z,1.00
2022-08-07T13:56:35.341Z,1.00
2022-08-07T13:59:13.435Z,1.00
2022-08-07T14:01:51.167Z,1.00
2022-08-07T14:04:37.983Z,1.00
2022-08-07T14:07:15.870Z,1.00
2022-08-07T14:10:02.546Z,1.00
2022-08-07T14:12:49.316Z,1.00
2022-08-07T14:15:31.600Z,1.00
2022-08-07T14:18:24.451Z,1.00
2022-08-07T14:21:07.848Z,1.00
2022-08-07T14:24:00.170Z,1.00
2022-08-07T14:26:33.400Z,1.00
2022-08-07T14:30:03.031Z,1.00
2022-08-07T14:31:56.203Z,1.00
2022-08-07T14:34:29.900Z,1.00
2022-08-07T14:37:01.650Z,1.00
2022-08-07T14:40:17.300Z,1.00
2022-08-07T14:42:31.497Z,1.00
2022-08-07T14:45:22.380Z,1.00
2022-08-07T14:47:53.074Z,1.00
2022-08-07T14:50:29.221Z,1.00
2022-08-07T14:53:09.890Z,1.00
2022-08-07T14:55:55.366Z,1.00
2022-08-07T14:58:34.823Z,1.00
2022-08-07T15:01:21.617Z,1.00
2022-08-07T15:03:53.004Z,1.00
2022-08-07T15:06:26.474Z,1.00
2022-08-07T15:08:56.253Z,1.00
2022-08-07T15:14:25.460Z,1.00
2022-08-07T15:17:01.699Z,1.00
2022-08-07T15:20:30.548Z,1.00
2022-08-07T15:22:31.339Z,1.00
2022-08-07T15:25:17.790Z,1.00
2022-08-07T15:28:02.063Z,1.00
2022-08-07T15:31:05.135Z,1.00
2022-08-07T15:33:33.539Z,1.00
2022-08-07T15:36:05.748Z,1.00
2022-08-07T15:38:51.887Z,1.00
2022-08-07T15:47:16.937Z,1.00
2022-08-07T15:50:05.812Z,1.00
2022-08-07T15:52:38.554Z,1.00
2022-08-07T15:55:12.383Z,1.00
2022-08-07T15:57:48.804Z,1.00
2022-08-07T16:00:31.825Z,1.00
2022-08-07T16:03:06.216Z,1.00
2022-08-07T16:05:38.646Z,1.00
2022-08-07T16:08:31.867Z,1.00
2022-08-07T16:11:27.187Z,1.00
2022-08-07T16:14:02.843Z,1.00
2022-08-07T16:16:49.930Z,1.00
2022-08-07T16:19:42.435Z,1.00
2022-08-07T16:22:55.709Z,1.00
2022-08-07T16:25:52.603Z,1.00
2022-08-07T16:30:06.768Z,1.00
2022-08-07T16:31:50.773Z,1.00
2022-08-07T16:34:34.760Z,1.00
2022-08-07T16:38:03.356Z,1.00
2022-08-07T16:41:02.125Z,1.00
2022-08-07T16:44:05.686Z,1.00
2022-08-07T16:47:08.839Z,1.00
2022-08-07T16:50:35.269Z,1.00
2022-08-07T16:53:48.077Z,1.00
2022-08-07T16:56:10.823Z,1.00
2022-08-07T16:59:10.804Z,1.00
2022-08-07T17:01:55.723Z,1.00
2022-08-07T17:04:36.916Z,1.00
2022-08-07T17:07:28.368Z,1.00
2022-08-07T17:10:32.654Z,1.00
2022-08-07T17:13:17.754Z,1.00
2022-08-07T17:15:55.654Z,1.00
2022-08-07T17:18:32.528Z,1.00
2022-08-07T17:21:02.831Z,1.00
2022-08-07T17:23:57.555Z,1.00
2022-08-07T17:26:35.873Z,1.00
2022-08-07T17:30:15.379Z,1.00
2022-08-07T17:32:30.501Z,1.00
2022-08-07T17:35:50.945Z,1.00
2022-08-07T17:38:17.697Z,1.00
2022-08-07T17:42:02.225Z,1.00
2022-08-07T17:44:02.638Z,1.00
2022-08-07T17:46:42.813Z,1.00
2022-08-07T17:49:23.920Z,1.00
2022-08-07T17:52:01.320Z,1.00
2022-08-07T17:54:53.177Z,1.00
2022-08-07T17:57:32.094Z,1.00
2022-08-07T18:00:33.037Z,1.00
2022-08-07T18:03:18.557Z,1.00
2022-08-07T18:06:03.489Z,1.00
2022-08-07T18:09:01.115Z,1.00
2022-08-07T18:12:12.038Z,1.00
2022-08-07T18:14:37.510Z,1.00
2022-08-07T18:18:33.038Z,1.00
2022-08-07T18:21:11.945Z,1.00
2022-08-07T18:23:07.039Z,1.00
2022-08-07T18:26:02.857Z,1.00
2022-08-07T18:28:58.213Z,1.00
2022-08-07T18:31:40.491Z,1.00
2022-08-07T18:34:37.149Z,1.00
2022-08-07T18:38:56.298Z,1.00
2022-08-07T18:40:42.406Z,1.00
2022-08-07T18:43:15.189Z,1.00
2022-08-07T18:46:21.655Z,1.00
2022-08-07T18:50:19.311Z,1.00
2022-08-07T18:52:37.612Z,1.00
2022-08-07T18:54:43.239Z,1.00
2022-08-07T18:57:37.057Z,1.00
2022-08-07T19:00:33.480Z,1.00
2022-08-07T19:03:11.823Z,1.00
2022-08-07T19:06:02.096Z,1.00
2022-08-07T19:08:46.568Z,1.00
2022-08-07T19:11:36.243Z,1.00
2022-08-07T19:14:17.284Z,1.00
2022-08-07T19:17:06.694Z,1.00
2022-08-07T19:19:48.930Z,1.00
2022-08-07T19:22:30.779Z,1.00
2022-08-07T19:25:06.300Z,1.00
2022-08-07T19:28:58.737Z,1.00
2022-08-07T19:31:05.415Z,1.00
2022-08-07T19:33:33.470Z,1.00
2022-08-07T19:36:04.945Z,1.00
2022-08-07T19:38:52.931Z,1.00
2022-08-07T19:41:44.128Z,1.00
2022-08-07T19:44:21.232Z,1.00
2022-08-07T19:46:57.576Z,1.00
2022-08-07T19:49:57.702Z,1.00
2022-08-07T19:52:18.731Z,1.00
2022-08-07T19:54:56.487Z,1.00
2022-08-07T19:58:03.553Z,1.00
2022-08-07T20:00:28.338Z,1.00
2022-08-07T20:03:02.907Z,1.00
2022-08-07T20:06:00.483Z,1.00
2022-08-07T20:08:25.646Z,1.00
2022-08-07T20:11:01.902Z,1.00
2022-08-07T20:13:37.964Z,1.00
2022-08-07T20:16:15.739Z,1.00
2022-08-07T20:19:04.661Z,1.00
2022-08-07T20:21:46.681Z,1.00
2022-08-07T20:24:20.182Z,1.00
2022-08-07T20:26:52.128Z,1.00
2022-08-07T20:29:49.268Z,1.00
2022-08-07T20:32:22.710Z,1.00
2022-08-07T20:34:58.430Z,1.00
2022-08-07T20:37:33.723Z,1.00
2022-08-07T20:40:31.571Z,1.00
2022-08-07T20:42:59.108Z,1.00
2022-08-07T20:46:24.349Z,1.00
2022-08-07T20:48:28.869Z,1.00
2022-08-07T20:51:01.008Z,1.00
2022-08-07T20:54:02.120Z,1.00
2022-08-07T20:56:20.264Z,1.00
2022-08-07T20:59:02.304Z,1.00
2022-08-07T21:01:55.404Z,1.00
2022-08-07T21:04:24.011Z,1.00
2022-08-07T21:06:56.932Z,1.00
2022-08-07T21:09:35.474Z,1.00
2022-08-07T21:12:25.915Z,1.00
2022-08-07T21:15:01.323Z,1.00
2022-08-07T21:18:03.164Z,1.00
2022-08-07T21:20:30.224Z,1.00
2022-08-07T21:23:08.500Z,1.00
2022-08-07T21:25:56.712Z,1.00
2022-08-07T21:28:48.234Z,1.00
2022-08-07T21:31:49.275Z,1.00
2022-08-07T21:34:26.688Z,1.00
2022-08-07T21:37:04.757Z,1.00
2022-08-07T21:39:45.956Z,1.00
2022-08-07T21:42:42.224Z,1.00
2022-08-07T21:46:07.763Z,1.00
2022-08-07T21:48:32.468Z,1.00
2022-08-07T21:51:20.035Z,1.00
2022-08-07T21:53:55.982Z,1.00
2022-08-07T21:56:47.741Z,1.00
2022-08-07T21:59:36.257Z,1.00
2022-08-07T22:02:32.205Z,1.00
2022-08-07T22:05:04.665Z,1.00
2022-08-07T22:07:48.692Z,1.00
2022-08-07T22:10:32.764Z,1.00
2022-08-07T22:13:05.985Z,1.00
2022-08-07T22:16:44.596Z,1.00
2022-08-07T22:18:38.138Z,1.00
2022-08-07T22:21:19.108Z,1.00
2022-08-07T22:23:53.555Z,1.00
2022-08-07T22:26:25.047Z,1.00
2022-08-07T22:29:00.230Z,1.00
2022-08-07T22:31:59.368Z,1.00
2022-08-07T22:34:35.809Z,1.00
2022-08-07T22:37:15.273Z,1.00
2022-08-07T22:39:52.640Z,1.00
2022-08-07T22:42:26.162Z,1.00
2022-08-07T22:45:02.394Z,1.00
2022-08-07T22:48:31.241Z,1.00
2022-08-07T22:51:16.411Z,1.00
2022-08-07T22:54:07.386Z,1.00
2022-08-07T22:56:51.737Z,1.00
2022-08-07T22:59:49.841Z,1.00
2022-08-07T23:02:41.001Z,1.00
2022-08-07T23:06:10.075Z,1.00
2022-08-07T23:08:42.032Z,1.00
2022-08-07T23:11:35.088Z,1.00
2022-08-07T23:14:30.985Z,1.00
2022-08-07T23:17:19.922Z,1.00
2022-08-07T23:20:20.333Z,1.00
2022-08-07T23:24:04.491Z,1.00
2022-08-07T23:26:26.037Z,1.00
2022-08-07T23:29:43.389Z,1.00
2022-08-07T23:34:24.136Z,1.00
2022-08-07T23:35:22.877Z,1.00
2022-08-07T23:38:19.010Z,1.00
2022-08-07T23:40:51.731Z,1.00
2022-08-07T23:43:52.512Z,1.00
2022-08-07T23:46:52.831Z,1.00
2022-08-07T23:49:51.424Z,1.00
2022-08-07T23:52:58.956Z,1.00
2022-08-07T23:55:52.301Z,1.00
2022-08-07T23:58:24.942Z,1.00
